Terminal Aerodrome Forecast
Issued by NWS

Home | Current Version | Previous Version | Text Only | Print | Product List | Glossary On
Versions: 1 2 3 4 5 6 7 8 9 10 11 12 13 14 15 16 17 18
764
FTUS43 KLSX 080722 AAA
TAFSUS
TAF AMD
KSUS 080722Z 0807/0906 28015G25KT P6SM -RASN BKN040
     FM081000 29017G27KT P6SM -SHSN OVC030
     FM081800 31017G26KT P6SM OVC035
     FM082300 31017G25KT P6SM OVC030=

USA.gov is the U.S. government's official web portal to all federal, state and local government web resources and services.